Time;durP1;ratioP1;P1;durP2;ratioP2;P2;SDS_P1;SDS_P2;PMS_P1;PMS_P2;Temp;Humidity;BMP_temperature;BMP_pressure;BME280_temperature;BME280_humidity;BME280_pressure;Samples;Min_cycle;Max_cycle;Signal;HPM_P1;HPM_P2
2022/03/26 00:00:50;;;;;;;25.90;14.60;;;;;;;8.43;55.03;101648.03;5093655;28;20028;-81
2022/03/26 00:03:16;;;;;;;22.55;13.32;;;;;;;8.40;54.80;101635.69;5093532;28;20028;-82
2022/03/26 00:05:43;;;;;;;24.02;14.05;;;;;;;8.35;55.39;101636.88;5094357;28;20032;-81
2022/03/26 00:08:09;;;;;;;19.23;12.40;;;;;;;8.29;54.93;101638.06;5093415;28;20106;-82
2022/03/26 00:10:35;;;;;;;27.88;14.18;;;;;;;8.29;54.83;101656.00;5093295;28;20126;-82
2022/03/26 00:13:01;;;;;;;24.13;14.10;;;;;;;8.27;54.94;101650.66;5093769;28;20020;-82
2022/03/26 00:15:26;;;;;;;21.20;14.10;;;;;;;8.24;54.87;101640.13;5093483;28;20043;-80
2022/03/26 00:17:52;;;;;;;22.83;12.68;;;;;;;8.25;55.37;101655.25;5093222;28;20056;-81
2022/03/26 00:20:17;;;;;;;21.83;13.45;;;;;;;8.28;54.74;101656.94;5092961;28;20019;-81
2022/03/26 00:22:43;;;;;;;47.47;22.27;;;;;;;8.17;55.27;101641.41;5093003;28;20447;-80
2022/03/26 00:25:10;;;;;;;21.88;13.82;;;;;;;8.08;55.37;101644.59;5074491;28;20024;-81
2022/03/26 00:27:36;;;;;;;21.95;13.63;;;;;;;7.90;55.12;101640.22;5074488;28;20051;-81
2022/03/26 00:30:03;;;;;;;20.83;12.82;;;;;;;8.04;55.40;101659.13;5092326;28;20454;-81
2022/03/26 00:32:30;;;;;;;20.83;13.25;;;;;;;7.97;55.31;101649.69;5074433;28;20082;-81
2022/03/26 00:34:55;;;;;;;25.60;14.05;;;;;;;8.04;55.32;101651.09;5074213;28;20093;-81
2022/03/26 00:37:21;;;;;;;25.52;13.88;;;;;;;8.04;55.54;101659.13;5092800;28;20028;-80
2022/03/26 00:39:46;;;;;;;21.85;12.80;;;;;;;8.01;55.32;101661.97;5092948;28;20024;-80
2022/03/26 00:42:12;;;;;;;23.30;12.73;;;;;;;7.96;54.91;101654.16;5092263;28;20478;-80
2022/03/26 00:44:38;;;;;;;20.73;13.00;;;;;;;7.90;55.69;101667.03;5074663;28;20101;-80
2022/03/26 00:47:05;;;;;;;26.58;13.43;;;;;;;7.88;55.11;101664.44;5073996;28;20402;-81
2022/03/26 00:49:31;;;;;;;23.58;12.18;;;;;;;7.81;55.27;101659.47;5073794;28;20445;-81
2022/03/26 00:51:56;;;;;;;22.58;12.38;;;;;;;7.74;55.73;101671.44;5092032;28;20503;-79
2022/03/26 00:54:23;;;;;;;22.20;13.35;;;;;;;7.57;56.16;101675.91;5092714;28;20028;-81
2022/03/26 00:56:49;;;;;;;20.17;12.63;;;;;;;7.59;55.78;101667.78;5092694;28;20515;-81
2022/03/26 00:59:14;;;;;;;21.52;13.32;;;;;;;7.58;55.90;101664.22;5074380;28;20027;-80
2022/03/26 01:01:40;;;;;;;28.95;13.50;;;;;;;7.61;56.18;101674.78;5092661;28;20427;-80
2022/03/26 01:04:06;;;;;;;21.88;12.68;;;;;;;7.66;55.80;101663.84;5092304;28;20516;-81
2022/03/26 01:06:31;;;;;;;21.35;12.23;;;;;;;7.62;56.17;101665.81;5093673;28;20619;-80
2022/03/26 01:08:57;;;;;;;22.23;12.77;;;;;;;7.72;55.87;101689.44;5097166;28;20028;-80
2022/03/26 01:11:23;;;;;;;20.75;13.45;;;;;;;7.70;55.48;101680.63;5092499;28;20067;-81
2022/03/26 01:13:53;;;;;;;23.17;13.70;;;;;;;7.71;55.89;101693.03;5092677;28;20040;-80
2022/03/26 01:16:19;;;;;;;22.02;12.43;;;;;;;7.76;55.75;101696.34;5092271;28;20028;-80
2022/03/26 01:18:44;;;;;;;20.33;12.90;;;;;;;7.70;55.59;101696.69;5092102;28;20085;-80
2022/03/26 01:21:10;;;;;;;19.30;12.43;;;;;;;7.72;55.49;101690.28;5092309;28;20024;-82
2022/03/26 01:23:35;;;;;;;19.83;12.77;;;;;;;7.78;55.17;101692.66;5074186;28;20111;-81
2022/03/26 01:26:02;;;;;;;21.73;12.25;;;;;;;7.74;55.57;101693.75;5091894;28;20402;-81
2022/03/26 01:28:30;;;;;;;19.92;12.13;;;;;;;7.88;55.54;101690.34;5092211;28;20088;-81
2022/03/26 01:30:56;;;;;;;23.75;12.85;;;;;;;7.87;55.17;101697.50;5092281;28;20027;-80
2022/03/26 01:33:22;;;;;;;21.63;12.48;;;;;;;7.80;55.08;101689.91;5091918;28;20028;-80
2022/03/26 01:35:47;;;;;;;20.92;11.25;;;;;;;7.84;54.89;101704.84;5091953;28;20026;-81
2022/03/26 01:38:13;;;;;;;22.35;11.95;;;;;;;7.86;54.31;101702.97;5091975;28;20032;-80
2022/03/26 01:40:38;;;;;;;18.88;11.57;;;;;;;7.79;54.62;101701.56;5092034;28;20028;-81
2022/03/26 01:43:04;;;;;;;22.35;11.90;;;;;;;7.83;54.23;101708.50;5073612;28;20035;-81
2022/03/26 01:45:30;;;;;;;19.40;11.45;;;;;;;7.77;54.58;101708.81;5091984;28;20032;-81
2022/03/26 01:47:57;;;;;;;23.98;12.25;;;;;;;7.80;54.38;101709.50;5091849;28;20024;-79
2022/03/26 01:50:24;;;;;;;21.58;11.30;;;;;;;7.77;54.23;101706.97;5091703;28;20031;-79
2022/03/26 01:52:49;;;;;;;18.38;11.90;;;;;;;7.74;54.35;101711.63;5092113;28;20520;-80
2022/03/26 01:55:16;;;;;;;19.33;12.18;;;;;;;7.68;54.32;101710.13;5073955;28;20478;-80
2022/03/26 01:57:41;;;;;;;29.30;13.52;;;;;;;7.76;54.58;101717.78;5091881;28;20474;-80
2022/03/26 02:00:08;;;;;;;18.63;12.27;;;;;;;7.74;54.68;101725.00;5093703;28;20111;-80
2022/03/26 02:02:34;;;;;;;26.90;11.35;;;;;;;7.80;54.18;101719.38;5095584;28;20030;-80
2022/03/26 02:05:00;;;;;;;18.05;11.23;;;;;;;7.85;53.66;101725.34;5077266;28;20039;-80
2022/03/26 02:07:26;;;;;;;22.85;12.32;;;;;;;7.79;53.87;101733.69;5095579;28;20032;-80
2022/03/26 02:09:51;;;;;;;27.77;11.30;;;;;;;7.72;53.83;101733.13;5095645;28;20051;-80
2022/03/26 02:12:30;;;;;;;19.05;11.73;;;;;;;7.74;53.95;101735.72;5095283;28;20034;-80
2022/03/26 02:14:57;;;;;;;19.20;10.85;;;;;;;7.63;54.21;101739.84;5077171;28;20035;-80
2022/03/26 02:17:24;;;;;;;14.52;10.10;;;;;;;7.61;53.94;101736.34;5077320;28;20116;-80
2022/03/26 02:19:53;;;;;;;24.90;12.43;;;;;;;7.72;54.28;101742.97;5095206;28;20051;-80
2022/03/26 02:22:20;;;;;;;26.00;13.40;;;;;;;7.52;54.57;101736.00;5095133;28;20035;-80
2022/03/26 02:24:46;;;;;;;20.27;12.10;;;;;;;7.52;54.39;101741.34;5095369;28;20035;-80
2022/03/26 02:27:12;;;;;;;20.70;11.20;;;;;;;7.47;54.38;101746.91;5095582;28;20115;-81
2022/03/26 02:29:37;;;;;;;22.45;10.98;;;;;;;7.28;54.76;101740.75;5095133;28;20067;-80
2022/03/26 02:32:03;;;;;;;19.20;11.60;;;;;;;7.23;54.84;101740.13;5095423;28;20458;-80
2022/03/26 02:34:29;;;;;;;17.15;11.27;;;;;;;6.91;55.77;101743.53;5095146;28;20024;-79
2022/03/26 02:36:56;;;;;;;25.58;11.73;;;;;;;6.96;55.82;101736.13;5077378;28;20510;-80
2022/03/26 02:39:21;;;;;;;22.88;12.43;;;;;;;6.81;56.09;101742.22;5095245;28;20454;-80
2022/03/26 02:41:47;;;;;;;19.58;11.02;;;;;;;6.68;56.56;101735.72;5077944;28;20020;-80
2022/03/26 02:44:12;;;;;;;20.08;12.43;;;;;;;6.74;56.47;101741.66;5102615;28;20129;-80
2022/03/26 02:46:38;;;;;;;23.52;12.00;;;;;;;6.66;56.25;101732.25;5095208;28;20028;-80
2022/03/26 02:49:03;;;;;;;22.00;12.82;;;;;;;6.70;56.57;101736.50;5094906;28;20024;-82
2022/03/26 02:51:29;;;;;;;20.17;12.25;;;;;;;6.63;56.82;101738.63;5076916;28;20024;-80
2022/03/26 02:53:54;;;;;;;26.45;13.23;;;;;;;6.72;56.41;101753.34;5095116;28;20114;-80
2022/03/26 02:56:20;;;;;;;21.08;11.57;;;;;;;6.62;56.63;101752.03;5094880;28;20031;-80
2022/03/26 02:58:47;;;;;;;22.63;11.80;;;;;;;6.77;56.63;101748.66;5094850;28;20039;-80
2022/03/26 03:01:13;;;;;;;20.77;11.40;;;;;;;6.86;55.75;101758.91;5094523;28;20028;-79
2022/03/26 03:03:39;;;;;;;24.23;11.07;;;;;;;6.79;55.76;101755.66;5076451;28;20023;-80
2022/03/26 03:06:04;;;;;;;20.88;12.30;;;;;;;6.80;55.73;101757.41;5094308;28;20036;-80
2022/03/26 03:08:30;;;;;;;22.55;13.32;;;;;;;6.66;56.22;101759.88;5076083;28;20131;-80
2022/03/26 03:10:56;;;;;;;23.77;12.52;;;;;;;6.66;55.89;101759.88;5075625;28;20055;-81
2022/03/26 03:13:22;;;;;;;19.50;12.05;;;;;;;6.66;56.24;101761.66;5076208;28;20052;-79
2022/03/26 03:15:49;;;;;;;22.20;10.85;;;;;;;6.54;56.10;101758.63;5076052;28;20035;-79
2022/03/26 03:18:14;;;;;;;22.42;11.75;;;;;;;6.63;56.45;101767.16;5094217;28;20103;-82
2022/03/26 03:20:40;;;;;;;24.20;11.85;;;;;;;6.58;55.70;101772.72;5094335;28;20062;-80
2022/03/26 03:23:05;;;;;;;29.20;11.70;;;;;;;6.54;55.76;101761.28;5093805;28;20038;-79
2022/03/26 03:25:31;;;;;;;20.00;11.32;;;;;;;6.61;55.37;101782.38;5094346;28;20064;-80
2022/03/26 03:27:57;;;;;;;21.55;10.30;;;;;;;6.58;55.57;101792.28;5093901;28;20032;-79
2022/03/26 03:30:24;;;;;;;19.80;10.60;;;;;;;6.69;54.92;101810.50;5093695;28;20046;-80
2022/03/26 03:32:50;;;;;;;18.40;10.80;;;;;;;6.69;54.51;101801.63;5093924;28;20059;-79
2022/03/26 03:35:16;;;;;;;18.38;10.57;;;;;;;6.61;54.67;101801.09;5093849;28;20546;-79
2022/03/26 03:37:41;;;;;;;20.80;11.45;;;;;;;6.65;54.72;101800.03;5093726;28;20075;-80
2022/03/26 03:40:08;;;;;;;20.65;11.88;;;;;;;6.63;54.65;101801.91;5093996;28;20107;-81
2022/03/26 03:42:34;;;;;;;21.02;10.27;;;;;;;6.66;53.83;101807.13;5075805;28;20107;-81
2022/03/26 03:44:59;;;;;;;23.98;11.88;;;;;;;6.57;54.05;101811.09;5093601;28;20055;-81
2022/03/26 03:47:25;;;;;;;18.00;11.23;;;;;;;6.63;53.79;101808.13;5075709;28;20053;-81
2022/03/26 03:49:51;;;;;;;16.90;10.52;;;;;;;6.61;53.35;101804.63;5075789;28;20032;-81
2022/03/26 03:52:17;;;;;;;20.88;11.25;;;;;;;6.61;53.47;101799.28;5093088;28;20047;-81
2022/03/26 03:54:42;;;;;;;21.23;11.98;;;;;;;6.63;53.25;101807.25;5093608;28;20059;-79
2022/03/26 03:57:08;;;;;;;26.75;11.15;;;;;;;6.65;53.06;101824.09;5093395;28;20031;-79
2022/03/26 03:59:34;;;;;;;20.17;11.02;;;;;;;6.61;52.94;101819.81;5093573;28;20031;-80
2022/03/26 04:01:59;;;;;;;22.92;10.23;;;;;;;6.57;52.57;101817.28;5093555;28;20028;-83
2022/03/26 04:04:25;;;;;;;25.35;12.10;;;;;;;6.49;52.52;101819.44;5095405;28;20024;-83
2022/03/26 04:06:51;;;;;;;23.35;11.93;;;;;;;6.47;52.85;101828.47;5109618;28;20042;-83
2022/03/26 04:09:16;;;;;;;21.85;11.48;;;;;;;6.43;52.63;101821.50;5096383;28;20127;-83
2022/03/26 04:11:42;;;;;;;17.70;11.00;;;;;;;6.47;52.54;101824.00;5113093;28;20093;-82
2022/03/26 04:14:07;;;;;;;26.85;11.23;;;;;;;6.55;52.54;101831.66;5093610;28;20024;-80
2022/03/26 04:16:33;;;;;;;18.40;11.52;;;;;;;6.49;52.30;101835.47;5085753;28;20027;-80
2022/03/26 04:18:59;;;;;;;20.33;11.55;;;;;;;6.33;52.66;101839.75;5102740;28;20015;-80
2022/03/26 04:21:25;;;;;;;18.20;10.88;;;;;;;6.41;52.99;101837.63;5107207;28;20027;-80
2022/03/26 04:23:51;;;;;;;24.33;11.27;;;;;;;6.42;52.87;101844.69;5105776;28;20386;-80
2022/03/26 04:26:16;;;;;;;20.40;11.45;;;;;;;6.42;52.82;101838.50;5100902;28;20023;-80
2022/03/26 04:28:42;;;;;;;19.05;11.18;;;;;;;6.43;52.86;101832.19;5077221;28;20118;-80
2022/03/26 04:31:08;;;;;;;18.05;11.57;;;;;;;6.41;52.49;101856.34;5103690;28;20032;-80
2022/03/26 04:33:34;;;;;;;19.08;11.68;;;;;;;6.41;52.55;101839.44;5098877;28;20108;-80
2022/03/26 04:35:59;;;;;;;21.35;12.82;;;;;;;6.30;53.05;101842.56;5079571;28;20058;-80
2022/03/26 04:38:25;;;;;;;22.02;11.25;;;;;;;6.23;53.15;101827.78;5093253;28;20108;-81
2022/03/26 04:40:50;;;;;;;27.10;12.60;;;;;;;6.34;53.37;101846.84;5097638;28;20078;-78
2022/03/26 04:43:18;;;;;;;20.98;11.30;;;;;;;6.41;53.30;101845.66;5093721;28;20024;-79
2022/03/26 04:45:44;;;;;;;24.92;12.90;;;;;;;6.15;53.59;101816.53;5092964;28;20032;-76
2022/03/26 04:48:09;;;;;;;26.92;13.40;;;;;;;6.41;53.39;101860.81;5092942;28;20050;-84
2022/03/26 04:50:35;;;;;;;20.35;13.18;;;;;;;6.31;53.64;101840.78;5075882;28;20414;-83
2022/03/26 04:53:00;;;;;;;24.40;12.48;;;;;;;6.39;53.75;101847.50;5093750;28;20043;-84
2022/03/26 04:55:26;;;;;;;27.70;14.43;;;;;;;6.43;53.71;101849.13;5093347;28;20072;-84
2022/03/26 04:57:51;;;;;;;24.63;13.68;;;;;;;6.53;54.08;101869.16;5093195;28;20031;-82
2022/03/26 05:00:18;;;;;;;28.48;13.90;;;;;;;6.56;54.25;101871.69;5093702;28;20085;-82
2022/03/26 05:02:44;;;;;;;26.38;15.25;;;;;;;6.66;53.99;101873.94;5093809;28;20034;-83
2022/03/26 05:05:12;;;;;;;29.25;15.70;;;;;;;6.55;54.44;101856.56;5093179;28;20092;-83
2022/03/26 05:07:48;;;;;;;33.15;15.68;;;;;;;6.70;53.90;101881.75;5092988;28;20038;-83
2022/03/26 05:10:24;;;;;;;42.42;16.00;;;;;;;6.70;54.30;101891.56;5092952;28;20097;-82
2022/03/26 05:12:51;;;;;;;30.00;14.60;;;;;;;6.87;54.10;101880.97;5093393;28;20055;-83
2022/03/26 05:15:20;;;;;;;31.95;16.55;;;;;;;6.96;53.86;101886.78;5075960;28;20063;-84
2022/03/26 05:17:45;;;;;;;28.42;14.50;;;;;;;7.12;53.87;101889.63;5074553;28;20110;-83
2022/03/26 05:20:12;;;;;;;28.98;15.25;;;;;;;7.25;53.57;101877.38;5074439;28;20486;-83
2022/03/26 05:22:39;;;;;;;34.03;14.70;;;;;;;7.23;53.21;101856.97;5092865;28;20106;-83
2022/03/26 05:25:06;;;;;;;25.40;15.18;;;;;;;7.44;53.02;101880.91;5093207;28;20562;-84
2022/03/26 05:27:32;;;;;;;25.17;15.20;;;;;;;7.43;53.14;101848.88;5074819;28;20027;-83
2022/03/26 05:29:57;;;;;;;20.65;13.18;;;;;;;7.66;52.70;101873.56;5077068;28;20032;-83
2022/03/26 05:32:23;;;;;;;23.42;14.48;;;;;;;7.69;51.78;101867.19;5104840;28;20052;-83
2022/03/26 05:34:50;;;;;;;26.63;14.95;;;;;;;7.83;51.80;101874.53;5096371;28;20042;-83
2022/03/26 05:37:16;;;;;;;26.27;14.85;;;;;;;7.97;51.55;101880.06;5104681;28;20027;-87
2022/03/26 05:39:42;;;;;;;26.00;13.85;;;;;;;8.10;51.20;101879.34;5097872;28;20032;-84
2022/03/26 05:42:07;;;;;;;23.85;14.40;;;;;;;8.23;51.22;101892.97;5097426;28;20016;-83
2022/03/26 05:44:33;;;;;;;26.17;15.57;;;;;;;8.26;51.36;101889.28;5097826;27;20027;-83
2022/03/26 05:47:00;;;;;;;41.97;15.73;;;;;;;8.23;51.86;101892.97;5119095;27;20023;-82
2022/03/26 05:49:26;;;;;;;30.63;16.45;;;;;;;8.09;51.67;101855.31;5137320;27;20026;-83
2022/03/26 05:51:52;;;;;;;26.00;15.32;;;;;;;8.28;52.03;101882.94;5137443;27;20023;-83
2022/03/26 05:54:18;;;;;;;27.27;15.90;;;;;;;8.31;52.16;101893.50;5119190;27;20023;-83
2022/03/26 05:56:51;;;;;;;23.98;14.15;;;;;;;8.34;51.55;101898.72;5137722;27;20134;-84
2022/03/26 05:59:23;;;;;;;21.98;13.57;;;;;;;8.25;51.84;101892.91;5153012;27;20026;-84
2022/03/26 06:01:49;;;;;;;33.05;16.65;;;;;;;8.21;52.12;101897.56;5129534;27;20054;-83
2022/03/26 06:04:15;;;;;;;24.88;14.48;;;;;;;8.17;52.78;101895.97;5114696;28;20051;-83
2022/03/26 06:06:41;;;;;;;21.83;14.07;;;;;;;8.37;52.58;101919.13;5083151;28;20028;-81
2022/03/26 06:09:07;;;;;;;30.13;16.05;;;;;;;8.39;51.86;101902.00;5093837;28;20054;-84
2022/03/26 06:11:33;;;;;;;27.50;14.60;;;;;;;8.39;52.19;101887.72;5098187;28;20103;-84
2022/03/26 06:13:58;;;;;;;23.80;15.35;;;;;;;8.58;52.18;101910.81;5098229;28;20054;-83
2022/03/26 06:16:24;;;;;;;26.20;15.65;;;;;;;8.69;52.02;101899.50;5098712;28;20024;-84
2022/03/26 06:18:50;;;;;;;26.77;15.52;;;;;;;8.80;51.46;101915.06;5116919;28;20028;-85
2022/03/26 06:21:16;;;;;;;24.73;15.55;;;;;;;8.69;50.95;101888.78;5105114;28;20158;-84
2022/03/26 06:23:41;;;;;;;28.83;15.13;;;;;;;8.84;51.17;101919.31;5096414;28;20496;-85
2022/03/26 06:26:07;;;;;;;24.67;12.93;;;;;;;8.89;50.84;101895.78;5096870;28;20020;-84
2022/03/26 06:28:33;;;;;;;26.13;13.82;;;;;;;8.77;50.70;101882.06;5095908;28;20016;-83
2022/03/26 06:30:58;;;;;;;24.92;14.52;;;;;;;9.03;50.57;101914.66;5100472;28;20027;-85
2022/03/26 06:33:24;;;;;;;27.42;13.35;;;;;;;8.93;50.58;101892.00;5098327;28;20030;-84
2022/03/26 06:35:50;;;;;;;29.60;14.23;;;;;;;9.01;50.84;101887.94;5100257;28;20428;-83
2022/03/26 06:38:15;;;;;;;27.00;14.75;;;;;;;9.31;50.90;101917.56;5078646;28;20030;-84
2022/03/26 06:40:41;;;;;;;28.27;12.80;;;;;;;9.34;49.93;101898.59;5077715;28;20024;-85
2022/03/26 06:43:07;;;;;;;24.83;14.07;;;;;;;9.64;49.54;101931.78;5096206;28;20063;-85
2022/03/26 06:45:34;;;;;;;21.33;13.10;;;;;;;9.74;49.41;101924.94;5100444;28;20038;-85
2022/03/26 06:48:00;;;;;;;28.73;14.18;;;;;;;9.83;49.16;101923.53;5115710;28;20858;-80
2022/03/26 06:50:25;;;;;;;26.30;14.07;;;;;;;9.93;49.10;101923.88;5106947;28;20394;-85
2022/03/26 06:52:52;;;;;;;27.65;14.85;;;;;;;9.91;48.95;101905.16;5064760;28;20135;-82
2022/03/26 06:55:18;;;;;;;25.52;13.52;;;;;;;10.07;48.61;101932.00;5081724;28;20407;-87
2022/03/26 06:57:44;;;;;;;25.38;13.25;;;;;;;10.10;48.30;101911.19;5095093;28;20024;-85
2022/03/26 07:00:11;;;;;;;22.65;12.95;;;;;;;10.27;48.45;101945.19;5088695;28;20071;-85
2022/03/26 07:02:37;;;;;;;25.50;13.52;;;;;;;10.34;48.38;101946.53;5081012;28;20077;-81
2022/03/26 07:05:06;;;;;;;24.90;13.82;;;;;;;10.35;47.95;101932.16;5094333;28;20039;-81
2022/03/26 07:07:32;;;;;;;21.13;13.15;;;;;;;10.38;48.16;101938.22;5109881;28;20114;-77
2022/03/26 07:09:58;;;;;;;22.15;12.95;;;;;;;10.45;47.80;101944.09;5109287;28;20047;-76
2022/03/26 07:12:24;;;;;;;22.77;14.32;;;;;;;10.38;47.68;101942.72;5112054;28;20097;-79
2022/03/26 07:14:49;;;;;;;27.50;15.13;;;;;;;10.33;48.41;101934.06;5101502;28;20028;-77
2022/03/26 07:17:16;;;;;;;27.48;14.18;;;;;;;10.48;48.27;101949.28;5098326;28;20040;-77
2022/03/26 07:19:42;;;;;;;28.42;14.70;;;;;;;10.54;47.64;101932.78;5077188;28;20024;-76
2022/03/26 07:22:07;;;;;;;35.55;14.68;;;;;;;10.60;47.50;101936.91;5095342;28;20022;-76
2022/03/26 07:24:33;;;;;;;21.25;12.00;;;;;;;10.59;47.43;101935.16;5095884;28;20034;-76
2022/03/26 07:26:58;;;;;;;29.27;13.65;;;;;;;10.72;47.35;101931.66;5094668;28;20024;-77
2022/03/26 07:29:24;;;;;;;33.45;13.90;;;;;;;10.75;47.45;101931.47;5113577;28;20028;-75
2022/03/26 07:31:49;;;;;;;22.88;12.98;;;;;;;10.88;47.19;101929.75;5079002;28;20028;-78
2022/03/26 07:34:16;;;;;;;31.20;13.68;;;;;;;10.90;46.69;101914.38;5093218;28;20458;-77
2022/03/26 07:36:42;;;;;;;26.15;12.95;;;;;;;10.98;46.77;101931.88;5094289;28;20493;-77
2022/03/26 07:39:07;;;;;;;19.20;13.18;;;;;;;11.00;47.08;101932.63;5101733;28;20111;-77
2022/03/26 07:41:33;;;;;;;35.63;12.68;;;;;;;10.99;46.36;101929.06;5113359;28;20058;-77
2022/03/26 07:43:58;;;;;;;24.48;13.70;;;;;;;11.02;46.37;101944.16;5111907;28;20066;-79
2022/03/26 07:46:24;;;;;;;23.65;13.95;;;;;;;11.09;46.50;101943.69;5108253;28;20426;-77
2022/03/26 07:48:49;;;;;;;36.75;14.73;;;;;;;11.11;46.54;101935.50;5076860;28;20089;-80
2022/03/26 07:51:15;;;;;;;46.97;16.40;;;;;;;11.20;46.74;101945.69;5098834;28;20027;-78
2022/03/26 07:53:41;;;;;;;22.35;14.23;;;;;;;11.24;45.75;101933.78;5113408;28;20022;-81
2022/03/26 07:56:06;;;;;;;31.25;14.75;;;;;;;11.28;45.87;101941.56;5112921;28;20107;-77
2022/03/26 07:58:32;;;;;;;26.83;14.80;;;;;;;11.31;46.23;101929.75;5112129;28;20110;-75
2022/03/26 08:00:57;;;;;;;29.73;12.07;;;;;;;11.33;44.91;101911.66;5112376;28;20016;-76
2022/03/26 08:03:24;;;;;;;28.48;13.52;;;;;;;11.59;44.40;101943.16;5098954;28;20028;-77
2022/03/26 08:05:50;;;;;;;29.45;13.77;;;;;;;11.54;44.28;101941.72;5101563;28;20028;-75
2022/03/26 08:08:17;;;;;;;18.27;13.15;;;;;;;11.66;43.78;101940.94;5093029;28;20024;-74
2022/03/26 08:10:42;;;;;;;15.40;10.48;;;;;;;11.77;43.42;101952.78;5092583;28;20052;-75
2022/03/26 08:13:08;;;;;;;26.05;10.80;;;;;;;11.81;42.82;101942.66;5092399;28;20093;-76
2022/03/26 08:15:34;;;;;;;26.63;12.68;;;;;;;11.88;43.10;101939.47;5092787;28;20032;-77
2022/03/26 08:18:02;;;;;;;20.10;10.55;;;;;;;11.93;42.88;101940.03;5092747;28;20073;-77
2022/03/26 08:20:29;;;;;;;26.20;11.27;;;;;;;12.07;42.53;101930.16;5092724;28;20041;-78
2022/03/26 08:22:54;;;;;;;21.38;12.27;;;;;;;12.23;43.02;101931.72;5092118;28;20024;-75
2022/03/26 08:28:09;;;;;;;20.85;12.88;;;;;;;12.32;42.89;101916.75;5092280;28;20092;-78
2022/03/26 08:30:35;;;;;;;19.52;11.50;;;;;;;12.53;42.96;101929.66;5091853;28;20499;-79
2022/03/26 08:33:01;;;;;;;35.97;12.18;;;;;;;12.66;42.81;101918.84;5073763;28;20446;-77
2022/03/26 08:35:35;;;;;;;17.95;11.18;;;;;;;12.74;42.97;101912.91;5091908;28;20020;-76
2022/03/26 08:38:01;;;;;;;18.38;12.20;;;;;;;12.80;42.41;101910.66;5092094;28;20038;-80
2022/03/26 08:40:26;;;;;;;29.50;14.38;;;;;;;12.87;41.81;101906.53;5074552;28;20024;-80
2022/03/26 08:42:52;;;;;;;21.17;12.70;;;;;;;12.93;41.55;101911.53;5092707;28;20027;-79
2022/03/26 08:45:18;;;;;;;17.95;10.68;;;;;;;13.04;41.34;101918.84;5075873;28;20481;-85
2022/03/26 08:47:44;;;;;;;17.83;11.85;;;;;;;13.05;41.16;101910.66;5073620;28;20124;-78
2022/03/26 08:50:09;;;;;;;20.75;12.32;;;;;;;13.18;40.90;101917.91;5096778;28;20438;-76
2022/03/26 08:52:37;;;;;;;22.65;11.88;;;;;;;13.18;40.10;101909.81;5112124;28;20096;-77
2022/03/26 08:55:03;;;;;;;19.83;11.55;;;;;;;13.32;39.58;101917.78;5112465;28;20027;-77
2022/03/26 08:57:28;;;;;;;23.58;12.52;;;;;;;13.27;39.89;101911.84;5112299;28;20080;-78
2022/03/26 08:59:53;;;;;;;18.15;11.90;;;;;;;13.31;39.92;101907.94;5094143;28;20043;-78
2022/03/26 09:02:19;;;;;;;17.17;11.30;;;;;;;13.38;40.10;101909.22;5093816;28;20016;-83
2022/03/26 09:04:45;;;;;;;21.77;11.07;;;;;;;13.41;39.21;101917.97;5112604;28;20027;-79
2022/03/26 09:07:11;;;;;;;22.83;11.98;;;;;;;13.48;39.35;101918.41;5113679;28;20038;-82
2022/03/26 09:09:36;;;;;;;20.38;11.43;;;;;;;13.56;38.95;101916.84;5112836;28;20040;-79
2022/03/26 09:12:02;;;;;;;20.38;10.45;;;;;;;13.56;39.05;101916.84;5112999;28;20080;-79
2022/03/26 09:14:28;;;;;;;16.35;10.68;;;;;;;13.47;39.32;101890.50;5112723;28;20032;-81
2022/03/26 09:16:53;;;;;;;31.67;12.32;;;;;;;13.63;38.64;101901.03;5116332;28;20341;-83
2022/03/26 09:19:19;;;;;;;17.42;11.88;;;;;;;13.66;38.49;101890.00;5114978;28;20050;-81
2022/03/26 09:21:46;;;;;;;16.60;11.07;;;;;;;13.68;38.67;101885.34;5114225;28;20015;-84
2022/03/26 09:24:13;;;;;;;18.52;11.25;;;;;;;13.71;38.31;101889.66;5095708;28;20019;-82
2022/03/26 09:26:39;;;;;;;20.98;11.52;;;;;;;14.00;38.07;101909.97;5113091;28;20107;-83
2022/03/26 09:29:05;;;;;;;20.73;11.32;;;;;;;14.13;37.60;101895.41;5112976;28;20054;-82
2022/03/26 09:31:31;;;;;;;18.92;10.20;;;;;;;14.28;37.39;101914.16;5113729;28;20047;-81
2022/03/26 09:33:56;;;;;;;20.00;11.77;;;;;;;14.41;36.81;101904.13;5112743;28;20015;-80
2022/03/26 09:36:22;;;;;;;18.45;11.15;;;;;;;14.48;36.25;101883.75;5114195;28;20020;-83
2022/03/26 09:38:47;;;;;;;19.58;11.75;;;;;;;14.57;35.28;101883.03;5095754;28;20103;-83
2022/03/26 09:41:14;;;;;;;19.67;10.63;;;;;;;14.56;34.75;101878.59;5112675;28;20385;-82
2022/03/26 09:43:40;;;;;;;18.95;11.05;;;;;;;14.58;35.31;101890.19;5096028;28;20114;-83
2022/03/26 09:46:06;;;;;;;21.77;11.32;;;;;;;14.66;35.44;101888.59;5094717;28;20058;-84
2022/03/26 09:48:32;;;;;;;19.00;11.20;;;;;;;14.73;35.63;101872.72;5113896;28;20026;-82
2022/03/26 09:50:58;;;;;;;21.00;10.32;;;;;;;14.90;35.62;101874.94;5113261;28;20102;-82
2022/03/26 09:53:25;;;;;;;40.38;10.45;;;;;;;15.03;35.45;101880.25;5112074;28;20776;-81
2022/03/26 09:55:52;;;;;;;20.35;11.18;;;;;;;15.16;34.56;101886.41;5093384;28;20500;-76
2022/03/26 09:58:17;;;;;;;21.38;10.95;;;;;;;15.05;34.79;101857.44;5112536;28;20088;-79
2022/03/26 10:00:42;;;;;;;18.67;10.75;;;;;;;15.17;34.36;101870.00;5111771;28;20492;-78
2022/03/26 10:03:08;;;;;;;15.45;10.50;;;;;;;15.27;33.93;101857.44;5111672;28;20035;-78
2022/03/26 10:05:35;;;;;;;17.67;11.35;;;;;;;15.31;33.30;101881.59;5111312;28;20031;-77
2022/03/26 10:08:21;;;;;;;18.90;10.93;;;;;;;15.39;33.38;101871.84;5093063;28;20040;-77
2022/03/26 10:10:47;;;;;;;20.90;11.65;;;;;;;15.53;32.90;101873.47;5111390;28;20048;-76
2022/03/26 10:13:32;;;;;;;22.10;11.68;;;;;;;15.65;33.03;101867.03;5111346;28;20031;-78
2022/03/26 10:16:02;;;;;;;18.48;11.32;;;;;;;15.72;32.34;101863.66;5111116;28;20019;-76
2022/03/26 10:18:39;;;;;;;18.08;10.90;;;;;;;15.82;32.36;101865.59;5112211;28;20034;-78
2022/03/26 10:21:09;;;;;;;18.60;10.35;;;;;;;15.81;32.21;101863.91;5094517;28;20100;-79
2022/03/26 10:23:36;;;;;;;20.85;10.55;;;;;;;15.83;32.69;101861.91;5097379;28;20044;-81
2022/03/26 10:26:22;;;;;;;16.85;10.85;;;;;;;15.82;31.61;101850.19;5096633;28;20035;-78
2022/03/26 10:28:56;;;;;;;19.90;10.93;;;;;;;16.00;32.17;101861.34;5097017;28;20034;-79
2022/03/26 10:34:15;;;;;;;26.58;10.23;;;;;;;16.17;32.18;101839.06;5115462;28;20037;-82
2022/03/26 10:36:56;;;;;;;16.10;9.45;;;;;;;16.33;31.33;101842.16;5114751;28;20024;-77
2022/03/26 10:39:26;;;;;;;22.95;9.63;;;;;;;16.39;31.46;101835.38;5114466;28;20046;-77
2022/03/26 10:41:53;;;;;;;16.33;9.98;;;;;;;16.39;30.96;101832.66;5113250;28;20028;-77
2022/03/26 10:44:28;;;;;;;13.88;9.63;;;;;;;16.43;31.53;101836.81;5101982;28;20024;-76
2022/03/26 10:46:57;;;;;;;23.08;11.23;;;;;;;16.53;31.07;101835.03;5117251;28;20470;-77
2022/03/26 10:49:28;;;;;;;16.55;10.48;;;;;;;16.67;30.93;101834.69;5114798;28;20377;-76
2022/03/26 10:51:55;;;;;;;21.60;9.90;;;;;;;16.81;31.06;101826.22;5096845;28;20366;-76
2022/03/26 10:54:29;;;;;;;15.15;9.93;;;;;;;16.98;31.15;101822.84;5092387;28;20115;-78
2022/03/26 10:56:57;;;;;;;18.42;10.52;;;;;;;17.17;31.38;101816.63;5084781;28;20103;-78
2022/03/26 10:59:23;;;;;;;19.23;11.10;;;;;;;17.36;31.17;101811.25;5087230;28;20034;-76
2022/03/26 11:01:49;;;;;;;18.08;10.75;;;;;;;17.52;31.30;101807.97;5102994;28;20096;-77
2022/03/26 11:04:14;;;;;;;13.65;9.35;;;;;;;17.69;30.68;101801.88;5103158;28;20090;-77
2022/03/26 11:06:40;;;;;;;15.52;8.75;;;;;;;17.83;30.56;101801.44;5101869;28;20393;-79
2022/03/26 11:09:06;;;;;;;18.92;9.18;;;;;;;17.72;29.45;101796.13;5104321;28;20082;-78
2022/03/26 11:11:32;;;;;;;18.15;10.02;;;;;;;17.76;29.58;101803.03;5103986;28;20048;-78
2022/03/26 11:14:05;;;;;;;17.50;10.65;;;;;;;17.56;29.51;101784.94;5102371;28;20485;-77
2022/03/26 11:16:37;;;;;;;16.10;9.75;;;;;;;17.77;29.53;101807.44;5086434;28;20032;-78